sensor_id;sensor_type;location;lat;lon;timestamp;P1;durP1;ratioP1;P2;durP2;ratioP2
19219;SDS011;9744;49.364;7.484;2023-06-14T00:02:24;5.57;;;3.72;;
19219;SDS011;9744;49.364;7.484;2023-06-14T00:04:52;7.32;;;4.18;;
19219;SDS011;9744;49.364;7.484;2023-06-14T00:07:22;8.15;;;4.00;;
19219;SDS011;9744;49.364;7.484;2023-06-14T00:10:01;11.77;;;4.60;;
19219;SDS011;9744;49.364;7.484;2023-06-14T00:12:29;4.90;;;3.85;;
19219;SDS011;9744;49.364;7.484;2023-06-14T00:14:57;4.78;;;3.25;;
19219;SDS011;9744;49.364;7.484;2023-06-14T00:17:26;7.30;;;4.13;;
19219;SDS011;9744;49.364;7.484;2023-06-14T00:19:55;7.10;;;3.60;;
19219;SDS011;9744;49.364;7.484;2023-06-14T00:22:24;7.93;;;3.90;;
19219;SDS011;9744;49.364;7.484;2023-06-14T00:24:54;9.43;;;3.92;;
19219;SDS011;9744;49.364;7.484;2023-06-14T00:27:21;9.30;;;4.63;;
19219;SDS011;9744;49.364;7.484;2023-06-14T00:29:50;5.18;;;3.35;;
19219;SDS011;9744;49.364;7.484;2023-06-14T00:32:18;5.88;;;4.07;;
19219;SDS011;9744;49.364;7.484;2023-06-14T00:34:49;8.00;;;4.05;;
19219;SDS011;9744;49.364;7.484;2023-06-14T00:37:17;5.10;;;3.83;;
19219;SDS011;9744;49.364;7.484;2023-06-14T00:39:46;5.38;;;3.58;;
19219;SDS011;9744;49.364;7.484;2023-06-14T00:42:22;6.35;;;3.40;;
19219;SDS011;9744;49.364;7.484;2023-06-14T00:44:50;5.15;;;3.42;;
19219;SDS011;9744;49.364;7.484;2023-06-14T00:47:17;7.68;;;3.78;;
19219;SDS011;9744;49.364;7.484;2023-06-14T00:49:45;4.68;;;3.85;;
19219;SDS011;9744;49.364;7.484;2023-06-14T00:52:14;4.55;;;3.55;;
19219;SDS011;9744;49.364;7.484;2023-06-14T00:54:43;4.20;;;3.70;;
19219;SDS011;9744;49.364;7.484;2023-06-14T00:57:11;7.15;;;3.53;;
19219;SDS011;9744;49.364;7.484;2023-06-14T00:59:42;3.78;;;3.38;;
19219;SDS011;9744;49.364;7.484;2023-06-14T01:02:10;6.38;;;3.70;;
19219;SDS011;9744;49.364;7.484;2023-06-14T01:04:38;3.80;;;3.25;;
19219;SDS011;9744;49.364;7.484;2023-06-14T01:07:10;6.70;;;3.38;;
19219;SDS011;9744;49.364;7.484;2023-06-14T01:09:46;4.13;;;3.35;;
19219;SDS011;9744;49.364;7.484;2023-06-14T01:12:27;6.10;;;3.85;;
19219;SDS011;9744;49.364;7.484;2023-06-14T01:15:00;6.63;;;3.50;;
19219;SDS011;9744;49.364;7.484;2023-06-14T01:17:29;5.15;;;3.88;;
19219;SDS011;9744;49.364;7.484;2023-06-14T01:19:58;3.92;;;3.30;;
19219;SDS011;9744;49.364;7.484;2023-06-14T01:22:28;5.72;;;3.30;;
19219;SDS011;9744;49.364;7.484;2023-06-14T01:24:57;5.75;;;3.70;;
19219;SDS011;9744;49.364;7.484;2023-06-14T01:27:25;4.15;;;3.70;;
19219;SDS011;9744;49.364;7.484;2023-06-14T01:29:55;6.18;;;3.97;;
19219;SDS011;9744;49.364;7.484;2023-06-14T01:32:23;5.82;;;3.40;;
19219;SDS011;9744;49.364;7.484;2023-06-14T01:34:52;10.07;;;4.05;;
19219;SDS011;9744;49.364;7.484;2023-06-14T01:37:20;5.90;;;4.00;;
19219;SDS011;9744;49.364;7.484;2023-06-14T01:39:48;10.45;;;4.05;;
19219;SDS011;9744;49.364;7.484;2023-06-14T01:42:19;5.80;;;3.92;;
19219;SDS011;9744;49.364;7.484;2023-06-14T01:44:48;5.05;;;3.90;;
19219;SDS011;9744;49.364;7.484;2023-06-14T01:47:19;5.22;;;3.58;;
19219;SDS011;9744;49.364;7.484;2023-06-14T01:49:47;5.00;;;3.70;;
19219;SDS011;9744;49.364;7.484;2023-06-14T01:52:15;6.13;;;3.47;;
19219;SDS011;9744;49.364;7.484;2023-06-14T01:54:44;6.32;;;3.75;;
19219;SDS011;9744;49.364;7.484;2023-06-14T01:57:13;5.05;;;3.85;;
19219;SDS011;9744;49.364;7.484;2023-06-14T01:59:41;4.90;;;3.67;;
19219;SDS011;9744;49.364;7.484;2023-06-14T02:02:13;6.45;;;3.58;;
19219;SDS011;9744;49.364;7.484;2023-06-14T02:04:41;7.18;;;3.95;;
19219;SDS011;9744;49.364;7.484;2023-06-14T02:07:08;6.53;;;4.07;;
19219;SDS011;9744;49.364;7.484;2023-06-14T02:09:36;5.75;;;4.10;;
19219;SDS011;9744;49.364;7.484;2023-06-14T02:12:03;7.68;;;4.20;;
19219;SDS011;9744;49.364;7.484;2023-06-14T02:14:31;7.07;;;3.78;;
19219;SDS011;9744;49.364;7.484;2023-06-14T02:17:00;9.20;;;3.88;;
19219;SDS011;9744;49.364;7.484;2023-06-14T02:19:27;6.07;;;4.10;;
19219;SDS011;9744;49.364;7.484;2023-06-14T02:21:56;6.63;;;3.95;;
19219;SDS011;9744;49.364;7.484;2023-06-14T02:24:23;5.75;;;3.95;;
19219;SDS011;9744;49.364;7.484;2023-06-14T02:26:50;6.88;;;4.25;;
19219;SDS011;9744;49.364;7.484;2023-06-14T02:29:17;7.95;;;3.88;;
19219;SDS011;9744;49.364;7.484;2023-06-14T02:31:45;4.63;;;3.67;;
19219;SDS011;9744;49.364;7.484;2023-06-14T02:34:15;9.05;;;3.90;;
19219;SDS011;9744;49.364;7.484;2023-06-14T02:36:46;6.30;;;3.78;;
19219;SDS011;9744;49.364;7.484;2023-06-14T02:39:13;4.35;;;3.75;;
19219;SDS011;9744;49.364;7.484;2023-06-14T02:41:42;5.32;;;4.10;;
19219;SDS011;9744;49.364;7.484;2023-06-14T02:44:10;6.68;;;3.78;;
19219;SDS011;9744;49.364;7.484;2023-06-14T02:46:38;6.50;;;4.22;;
19219;SDS011;9744;49.364;7.484;2023-06-14T02:49:05;7.75;;;4.40;;
19219;SDS011;9744;49.364;7.484;2023-06-14T02:51:34;6.50;;;4.22;;
19219;SDS011;9744;49.364;7.484;2023-06-14T02:54:01;5.32;;;4.22;;
19219;SDS011;9744;49.364;7.484;2023-06-14T02:56:29;6.57;;;4.07;;
19219;SDS011;9744;49.364;7.484;2023-06-14T02:58:56;6.35;;;3.70;;
19219;SDS011;9744;49.364;7.484;2023-06-14T03:01:26;6.15;;;4.32;;
19219;SDS011;9744;49.364;7.484;2023-06-14T03:04:02;5.95;;;4.05;;
19219;SDS011;9744;49.364;7.484;2023-06-14T03:06:35;6.38;;;4.07;;
19219;SDS011;9744;49.364;7.484;2023-06-14T03:09:03;4.05;;;3.65;;
19219;SDS011;9744;49.364;7.484;2023-06-14T03:11:31;6.15;;;3.90;;
19219;SDS011;9744;49.364;7.484;2023-06-14T03:13:59;8.50;;;4.00;;
19219;SDS011;9744;49.364;7.484;2023-06-14T03:16:29;6.05;;;4.05;;
19219;SDS011;9744;49.364;7.484;2023-06-14T03:18:58;6.30;;;3.80;;
19219;SDS011;9744;49.364;7.484;2023-06-14T03:21:28;7.75;;;3.80;;
19219;SDS011;9744;49.364;7.484;2023-06-14T03:23:59;5.82;;;4.20;;
19219;SDS011;9744;49.364;7.484;2023-06-14T03:26:27;5.82;;;4.30;;
19219;SDS011;9744;49.364;7.484;2023-06-14T03:28:56;5.32;;;4.13;;
19219;SDS011;9744;49.364;7.484;2023-06-14T03:31:23;4.85;;;3.85;;
19219;SDS011;9744;49.364;7.484;2023-06-14T03:33:50;5.32;;;4.35;;
19219;SDS011;9744;49.364;7.484;2023-06-14T03:36:19;6.90;;;4.88;;
19219;SDS011;9744;49.364;7.484;2023-06-14T03:39:02;7.00;;;4.40;;
19219;SDS011;9744;49.364;7.484;2023-06-14T03:41:30;7.60;;;4.32;;
19219;SDS011;9744;49.364;7.484;2023-06-14T03:43:57;10.27;;;4.50;;
19219;SDS011;9744;49.364;7.484;2023-06-14T03:46:25;6.65;;;4.45;;
19219;SDS011;9744;49.364;7.484;2023-06-14T03:48:53;6.80;;;4.80;;
19219;SDS011;9744;49.364;7.484;2023-06-14T03:51:20;12.40;;;6.63;;
19219;SDS011;9744;49.364;7.484;2023-06-14T03:53:48;7.40;;;5.30;;
19219;SDS011;9744;49.364;7.484;2023-06-14T03:56:17;11.57;;;6.82;;
19219;SDS011;9744;49.364;7.484;2023-06-14T03:58:45;12.93;;;6.53;;
19219;SDS011;9744;49.364;7.484;2023-06-14T04:01:13;8.10;;;6.25;;
19219;SDS011;9744;49.364;7.484;2023-06-14T04:03:40;10.18;;;5.50;;
19219;SDS011;9744;49.364;7.484;2023-06-14T04:06:07;8.45;;;4.97;;
19219;SDS011;9744;49.364;7.484;2023-06-14T04:08:35;8.13;;;5.50;;
19219;SDS011;9744;49.364;7.484;2023-06-14T04:11:05;7.72;;;5.22;;
19219;SDS011;9744;49.364;7.484;2023-06-14T04:13:35;6.65;;;4.90;;
19219;SDS011;9744;49.364;7.484;2023-06-14T04:16:08;7.60;;;5.53;;
19219;SDS011;9744;49.364;7.484;2023-06-14T04:18:36;6.47;;;5.78;;
19219;SDS011;9744;49.364;7.484;2023-06-14T04:21:03;10.75;;;6.20;;
19219;SDS011;9744;49.364;7.484;2023-06-14T04:23:31;7.55;;;6.65;;
19219;SDS011;9744;49.364;7.484;2023-06-14T04:29:00;9.45;;;6.53;;
19219;SDS011;9744;49.364;7.484;2023-06-14T04:31:30;11.88;;;6.70;;
19219;SDS011;9744;49.364;7.484;2023-06-14T04:33:59;7.03;;;5.60;;
19219;SDS011;9744;49.364;7.484;2023-06-14T04:36:31;7.45;;;5.22;;
19219;SDS011;9744;49.364;7.484;2023-06-14T04:39:00;8.02;;;4.82;;
19219;SDS011;9744;49.364;7.484;2023-06-14T04:41:30;15.60;;;8.00;;
19219;SDS011;9744;49.364;7.484;2023-06-14T04:44:00;11.07;;;8.05;;
19219;SDS011;9744;49.364;7.484;2023-06-14T04:49:26;15.65;;;9.88;;
19219;SDS011;9744;49.364;7.484;2023-06-14T04:51:56;15.07;;;9.23;;
19219;SDS011;9744;49.364;7.484;2023-06-14T04:54:27;13.05;;;9.57;;
19219;SDS011;9744;49.364;7.484;2023-06-14T04:56:56;8.63;;;6.47;;
19219;SDS011;9744;49.364;7.484;2023-06-14T04:59:27;9.57;;;5.50;;
19219;SDS011;9744;49.364;7.484;2023-06-14T05:01:59;6.57;;;5.03;;
19219;SDS011;9744;49.364;7.484;2023-06-14T05:04:26;5.38;;;4.88;;
19219;SDS011;9744;49.364;7.484;2023-06-14T05:06:56;7.43;;;4.82;;
19219;SDS011;9744;49.364;7.484;2023-06-14T05:09:24;7.63;;;4.45;;
19219;SDS011;9744;49.364;7.484;2023-06-14T05:11:51;10.07;;;4.65;;
19219;SDS011;9744;49.364;7.484;2023-06-14T05:14:20;5.85;;;4.45;;
19219;SDS011;9744;49.364;7.484;2023-06-14T05:16:50;7.82;;;4.05;;
19219;SDS011;9744;49.364;7.484;2023-06-14T05:19:18;7.85;;;4.15;;
19219;SDS011;9744;49.364;7.484;2023-06-14T05:21:46;8.88;;;4.28;;
19219;SDS011;9744;49.364;7.484;2023-06-14T05:24:14;8.52;;;4.15;;
19219;SDS011;9744;49.364;7.484;2023-06-14T05:26:43;5.43;;;4.18;;
19219;SDS011;9744;49.364;7.484;2023-06-14T05:29:10;5.38;;;3.83;;
19219;SDS011;9744;49.364;7.484;2023-06-14T05:31:37;5.75;;;4.20;;
19219;SDS011;9744;49.364;7.484;2023-06-14T05:34:06;5.65;;;4.25;;
19219;SDS011;9744;49.364;7.484;2023-06-14T05:36:33;9.20;;;3.65;;
19219;SDS011;9744;49.364;7.484;2023-06-14T05:39:02;5.60;;;3.85;;
19219;SDS011;9744;49.364;7.484;2023-06-14T05:41:31;8.70;;;3.80;;
19219;SDS011;9744;49.364;7.484;2023-06-14T05:43:58;5.30;;;3.95;;
19219;SDS011;9744;49.364;7.484;2023-06-14T05:46:25;6.57;;;3.85;;
19219;SDS011;9744;49.364;7.484;2023-06-14T05:48:53;7.63;;;3.97;;
19219;SDS011;9744;49.364;7.484;2023-06-14T05:51:23;9.63;;;4.00;;
19219;SDS011;9744;49.364;7.484;2023-06-14T05:53:51;5.50;;;3.90;;
19219;SDS011;9744;49.364;7.484;2023-06-14T05:56:19;5.72;;;4.10;;
19219;SDS011;9744;49.364;7.484;2023-06-14T05:58:46;10.45;;;4.10;;
19219;SDS011;9744;49.364;7.484;2023-06-14T06:01:14;8.95;;;3.75;;
19219;SDS011;9744;49.364;7.484;2023-06-14T06:03:42;9.13;;;3.80;;
19219;SDS011;9744;49.364;7.484;2023-06-14T06:06:11;9.65;;;4.65;;
19219;SDS011;9744;49.364;7.484;2023-06-14T06:08:40;8.70;;;4.15;;
19219;SDS011;9744;49.364;7.484;2023-06-14T06:11:08;6.45;;;4.57;;
19219;SDS011;9744;49.364;7.484;2023-06-14T06:13:36;7.47;;;4.75;;
19219;SDS011;9744;49.364;7.484;2023-06-14T06:16:04;8.82;;;5.28;;
19219;SDS011;9744;49.364;7.484;2023-06-14T06:18:31;6.38;;;5.03;;
19219;SDS011;9744;49.364;7.484;2023-06-14T06:21:00;8.52;;;4.50;;
19219;SDS011;9744;49.364;7.484;2023-06-14T06:23:28;8.48;;;5.45;;
19219;SDS011;9744;49.364;7.484;2023-06-14T06:25:57;6.95;;;4.53;;
19219;SDS011;9744;49.364;7.484;2023-06-14T06:28:24;6.65;;;4.57;;
19219;SDS011;9744;49.364;7.484;2023-06-14T06:30:52;9.93;;;3.80;;
19219;SDS011;9744;49.364;7.484;2023-06-14T06:33:19;8.35;;;4.80;;
19219;SDS011;9744;49.364;7.484;2023-06-14T06:35:48;8.60;;;4.50;;
19219;SDS011;9744;49.364;7.484;2023-06-14T06:38:15;5.40;;;4.57;;
19219;SDS011;9744;49.364;7.484;2023-06-14T06:40:44;5.65;;;4.40;;
19219;SDS011;9744;49.364;7.484;2023-06-14T06:43:12;8.07;;;3.95;;
19219;SDS011;9744;49.364;7.484;2023-06-14T06:45:45;6.47;;;3.88;;
19219;SDS011;9744;49.364;7.484;2023-06-14T06:48:12;6.70;;;3.97;;
19219;SDS011;9744;49.364;7.484;2023-06-14T06:50:41;4.82;;;4.18;;
19219;SDS011;9744;49.364;7.484;2023-06-14T06:53:08;13.15;;;4.18;;
19219;SDS011;9744;49.364;7.484;2023-06-14T06:55:35;4.97;;;3.30;;
19219;SDS011;9744;49.364;7.484;2023-06-14T06:58:02;5.68;;;3.75;;
19219;SDS011;9744;49.364;7.484;2023-06-14T07:00:32;7.10;;;4.05;;
19219;SDS011;9744;49.364;7.484;2023-06-14T07:02:59;6.93;;;4.07;;
19219;SDS011;9744;49.364;7.484;2023-06-14T07:05:29;8.63;;;4.00;;
19219;SDS011;9744;49.364;7.484;2023-06-14T07:07:56;5.15;;;4.38;;
19219;SDS011;9744;49.364;7.484;2023-06-14T07:10:25;9.85;;;4.25;;
19219;SDS011;9744;49.364;7.484;2023-06-14T07:12:52;7.72;;;3.85;;
19219;SDS011;9744;49.364;7.484;2023-06-14T07:15:21;4.15;;;3.67;;
19219;SDS011;9744;49.364;7.484;2023-06-14T07:17:49;5.57;;;4.18;;
19219;SDS011;9744;49.364;7.484;2023-06-14T07:20:18;8.15;;;3.67;;
19219;SDS011;9744;49.364;7.484;2023-06-14T07:22:47;8.77;;;4.15;;
19219;SDS011;9744;49.364;7.484;2023-06-14T07:25:15;7.40;;;3.83;;
19219;SDS011;9744;49.364;7.484;2023-06-14T07:27:45;15.25;;;4.70;;
19219;SDS011;9744;49.364;7.484;2023-06-14T07:30:15;13.75;;;5.10;;
19219;SDS011;9744;49.364;7.484;2023-06-14T07:32:44;17.17;;;5.78;;
19219;SDS011;9744;49.364;7.484;2023-06-14T07:35:12;32.92;;;6.47;;
19219;SDS011;9744;49.364;7.484;2023-06-14T07:37:40;23.40;;;5.55;;
19219;SDS011;9744;49.364;7.484;2023-06-14T07:40:07;41.80;;;7.78;;
19219;SDS011;9744;49.364;7.484;2023-06-14T07:42:36;15.05;;;4.72;;
19219;SDS011;9744;49.364;7.484;2023-06-14T07:45:04;19.17;;;4.80;;
19219;SDS011;9744;49.364;7.484;2023-06-14T07:47:33;10.57;;;4.18;;
19219;SDS011;9744;49.364;7.484;2023-06-14T07:50:00;6.93;;;3.83;;
19219;SDS011;9744;49.364;7.484;2023-06-14T07:52:31;7.35;;;3.47;;
19219;SDS011;9744;49.364;7.484;2023-06-14T07:54:59;9.65;;;3.92;;
19219;SDS011;9744;49.364;7.484;2023-06-14T07:57:27;10.23;;;3.70;;
19219;SDS011;9744;49.364;7.484;2023-06-14T07:59:55;9.15;;;3.95;;
19219;SDS011;9744;49.364;7.484;2023-06-14T08:02:26;8.57;;;3.63;;
19219;SDS011;9744;49.364;7.484;2023-06-14T08:04:53;9.50;;;3.60;;
19219;SDS011;9744;49.364;7.484;2023-06-14T08:07:21;6.15;;;4.03;;
19219;SDS011;9744;49.364;7.484;2023-06-14T08:09:50;8.88;;;3.88;;
19219;SDS011;9744;49.364;7.484;2023-06-14T08:12:17;8.30;;;3.80;;
19219;SDS011;9744;49.364;7.484;2023-06-14T08:14:44;4.97;;;3.10;;
19219;SDS011;9744;49.364;7.484;2023-06-14T08:17:12;3.70;;;2.90;;
19219;SDS011;9744;49.364;7.484;2023-06-14T08:19:39;6.80;;;3.20;;
19219;SDS011;9744;49.364;7.484;2023-06-14T08:22:13;7.88;;;3.35;;
19219;SDS011;9744;49.364;7.484;2023-06-14T08:24:41;14.88;;;3.55;;
19219;SDS011;9744;49.364;7.484;2023-06-14T08:27:11;5.13;;;3.40;;
19219;SDS011;9744;49.364;7.484;2023-06-14T08:29:38;5.57;;;3.20;;
19219;SDS011;9744;49.364;7.484;2023-06-14T08:32:07;5.40;;;3.00;;
19219;SDS011;9744;49.364;7.484;2023-06-14T08:34:34;6.63;;;2.90;;
19219;SDS011;9744;49.364;7.484;2023-06-14T08:37:01;9.60;;;3.25;;
19219;SDS011;9744;49.364;7.484;2023-06-14T08:42:25;7.82;;;3.10;;
19219;SDS011;9744;49.364;7.484;2023-06-14T08:44:53;10.43;;;3.53;;
19219;SDS011;9744;49.364;7.484;2023-06-14T08:47:21;22.80;;;3.60;;
19219;SDS011;9744;49.364;7.484;2023-06-14T08:49:51;8.73;;;4.75;;
19219;SDS011;9744;49.364;7.484;2023-06-14T08:52:24;9.20;;;4.63;;
19219;SDS011;9744;49.364;7.484;2023-06-14T08:54:55;7.45;;;4.78;;
19219;SDS011;9744;49.364;7.484;2023-06-14T08:57:27;9.13;;;5.07;;
19219;SDS011;9744;49.364;7.484;2023-06-14T08:59:57;9.13;;;4.00;;
19219;SDS011;9744;49.364;7.484;2023-06-14T09:05:00;11.13;;;3.53;;
19219;SDS011;9744;49.364;7.484;2023-06-14T09:07:28;8.27;;;3.78;;
19219;SDS011;9744;49.364;7.484;2023-06-14T09:10:04;7.47;;;3.95;;
19219;SDS011;9744;49.364;7.484;2023-06-14T09:12:35;6.97;;;3.65;;
19219;SDS011;9744;49.364;7.484;2023-06-14T09:15:04;4.82;;;2.85;;
19219;SDS011;9744;49.364;7.484;2023-06-14T09:17:34;9.68;;;3.30;;
19219;SDS011;9744;49.364;7.484;2023-06-14T09:20:02;8.25;;;2.90;;
19219;SDS011;9744;49.364;7.484;2023-06-14T09:22:34;6.38;;;3.67;;
19219;SDS011;9744;49.364;7.484;2023-06-14T09:25:02;6.10;;;2.85;;
19219;SDS011;9744;49.364;7.484;2023-06-14T09:27:30;7.97;;;3.00;;
19219;SDS011;9744;49.364;7.484;2023-06-14T09:30:00;6.53;;;3.55;;
19219;SDS011;9744;49.364;7.484;2023-06-14T09:32:28;6.28;;;2.55;;
19219;SDS011;9744;49.364;7.484;2023-06-14T09:34:55;9.80;;;3.38;;
19219;SDS011;9744;49.364;7.484;2023-06-14T09:37:27;9.30;;;3.15;;
19219;SDS011;9744;49.364;7.484;2023-06-14T09:39:56;5.22;;;2.60;;
19219;SDS011;9744;49.364;7.484;2023-06-14T09:42:24;5.97;;;2.45;;
19219;SDS011;9744;49.364;7.484;2023-06-14T09:45:06;7.38;;;2.65;;
19219;SDS011;9744;49.364;7.484;2023-06-14T09:47:36;5.20;;;2.63;;
19219;SDS011;9744;49.364;7.484;2023-06-14T09:50:06;7.22;;;5.20;;
19219;SDS011;9744;49.364;7.484;2023-06-14T09:52:34;5.68;;;3.53;;
19219;SDS011;9744;49.364;7.484;2023-06-14T09:55:06;5.65;;;2.58;;
19219;SDS011;9744;49.364;7.484;2023-06-14T09:57:38;7.72;;;3.00;;
19219;SDS011;9744;49.364;7.484;2023-06-14T10:00:11;10.00;;;3.10;;
19219;SDS011;9744;49.364;7.484;2023-06-14T10:02:41;8.25;;;2.60;;
19219;SDS011;9744;49.364;7.484;2023-06-14T10:05:13;4.53;;;3.00;;
19219;SDS011;9744;49.364;7.484;2023-06-14T10:07:48;5.85;;;2.85;;
19219;SDS011;9744;49.364;7.484;2023-06-14T10:10:19;5.22;;;3.00;;
19219;SDS011;9744;49.364;7.484;2023-06-14T10:12:47;4.82;;;2.50;;
19219;SDS011;9744;49.364;7.484;2023-06-14T10:15:18;4.15;;;2.40;;
19219;SDS011;9744;49.364;7.484;2023-06-14T10:17:50;4.20;;;2.30;;
19219;SDS011;9744;49.364;7.484;2023-06-14T10:20:26;7.35;;;2.30;;
19219;SDS011;9744;49.364;7.484;2023-06-14T10:23:01;4.15;;;2.00;;
19219;SDS011;9744;49.364;7.484;2023-06-14T10:25:34;5.05;;;2.40;;
19219;SDS011;9744;49.364;7.484;2023-06-14T10:28:17;14.02;;;2.47;;
19219;SDS011;9744;49.364;7.484;2023-06-14T10:31:07;5.32;;;2.72;;
19219;SDS011;9744;49.364;7.484;2023-06-14T10:33:36;8.80;;;2.33;;
19219;SDS011;9744;49.364;7.484;2023-06-14T10:36:24;2.17;;;1.98;;
19219;SDS011;9744;49.364;7.484;2023-06-14T10:38:57;5.15;;;1.98;;
19219;SDS011;9744;49.364;7.484;2023-06-14T10:41:26;8.70;;;2.08;;
19219;SDS011;9744;49.364;7.484;2023-06-14T10:46:58;4.53;;;2.10;;
19219;SDS011;9744;49.364;7.484;2023-06-14T10:49:40;2.78;;;1.73;;
19219;SDS011;9744;49.364;7.484;2023-06-14T10:52:11;3.58;;;2.00;;
19219;SDS011;9744;49.364;7.484;2023-06-14T10:57:36;5.32;;;1.85;;
19219;SDS011;9744;49.364;7.484;2023-06-14T11:00:06;6.07;;;2.00;;
19219;SDS011;9744;49.364;7.484;2023-06-14T11:05:55;4.25;;;2.00;;
19219;SDS011;9744;49.364;7.484;2023-06-14T11:08:30;1.98;;;1.80;;
19219;SDS011;9744;49.364;7.484;2023-06-14T11:11:21;5.85;;;1.88;;
19219;SDS011;9744;49.364;7.484;2023-06-14T11:13:50;4.78;;;1.88;;
19219;SDS011;9744;49.364;7.484;2023-06-14T11:16:18;3.22;;;1.80;;
19219;SDS011;9744;49.364;7.484;2023-06-14T11:18:45;3.42;;;1.65;;
19219;SDS011;9744;49.364;7.484;2023-06-14T11:21:19;2.05;;;1.70;;
19219;SDS011;9744;49.364;7.484;2023-06-14T11:23:51;2.83;;;1.48;;
19219;SDS011;9744;49.364;7.484;2023-06-14T11:29:16;4.07;;;1.80;;
19219;SDS011;9744;49.364;7.484;2023-06-14T11:31:47;6.30;;;1.60;;
19219;SDS011;9744;49.364;7.484;2023-06-14T11:34:14;6.13;;;1.88;;
19219;SDS011;9744;49.364;7.484;2023-06-14T11:39:43;2.15;;;1.60;;
19219;SDS011;9744;49.364;7.484;2023-06-14T11:42:13;1.65;;;1.27;;
19219;SDS011;9744;49.364;7.484;2023-06-14T11:44:41;1.95;;;1.40;;
19219;SDS011;9744;49.364;7.484;2023-06-14T11:47:08;3.00;;;1.67;;
19219;SDS011;9744;49.364;7.484;2023-06-14T11:49:36;7.22;;;1.70;;
19219;SDS011;9744;49.364;7.484;2023-06-14T11:52:03;3.53;;;1.70;;
19219;SDS011;9744;49.364;7.484;2023-06-14T11:54:33;2.90;;;1.92;;
19219;SDS011;9744;49.364;7.484;2023-06-14T11:57:01;7.63;;;1.40;;
19219;SDS011;9744;49.364;7.484;2023-06-14T11:59:30;2.95;;;1.60;;
19219;SDS011;9744;49.364;7.484;2023-06-14T12:01:57;2.78;;;1.60;;
19219;SDS011;9744;49.364;7.484;2023-06-14T12:04:26;3.33;;;1.45;;
19219;SDS011;9744;49.364;7.484;2023-06-14T12:06:53;5.07;;;1.70;;
19219;SDS011;9744;49.364;7.484;2023-06-14T12:09:22;3.35;;;1.60;;
19219;SDS011;9744;49.364;7.484;2023-06-14T12:11:55;4.95;;;1.63;;
19219;SDS011;9744;49.364;7.484;2023-06-14T12:14:28;3.05;;;1.55;;
19219;SDS011;9744;49.364;7.484;2023-06-14T12:17:03;4.30;;;1.58;;
19219;SDS011;9744;49.364;7.484;2023-06-14T12:19:32;4.75;;;1.42;;
19219;SDS011;9744;49.364;7.484;2023-06-14T12:22:00;7.43;;;1.60;;
19219;SDS011;9744;49.364;7.484;2023-06-14T12:24:30;7.47;;;2.03;;
19219;SDS011;9744;49.364;7.484;2023-06-14T12:26:59;2.20;;;1.60;;
19219;SDS011;9744;49.364;7.484;2023-06-14T12:29:29;1.73;;;1.33;;
19219;SDS011;9744;49.364;7.484;2023-06-14T12:31:56;7.97;;;1.50;;
19219;SDS011;9744;49.364;7.484;2023-06-14T12:34:24;3.70;;;1.02;;
19219;SDS011;9744;49.364;7.484;2023-06-14T12:36:52;3.83;;;1.55;;
19219;SDS011;9744;49.364;7.484;2023-06-14T12:39:20;4.50;;;1.10;;
19219;SDS011;9744;49.364;7.484;2023-06-14T12:41:47;2.78;;;1.23;;
19219;SDS011;9744;49.364;7.484;2023-06-14T12:44:16;3.40;;;1.40;;
19219;SDS011;9744;49.364;7.484;2023-06-14T12:46:44;1.85;;;1.40;;
19219;SDS011;9744;49.364;7.484;2023-06-14T12:49:12;4.50;;;1.40;;
19219;SDS011;9744;49.364;7.484;2023-06-14T12:51:40;3.60;;;1.58;;
19219;SDS011;9744;49.364;7.484;2023-06-14T12:54:08;6.45;;;1.58;;
19219;SDS011;9744;49.364;7.484;2023-06-14T12:56:35;3.80;;;1.42;;
19219;SDS011;9744;49.364;7.484;2023-06-14T12:59:02;8.45;;;3.85;;
19219;SDS011;9744;49.364;7.484;2023-06-14T13:01:31;3.20;;;1.73;;
19219;SDS011;9744;49.364;7.484;2023-06-14T13:03:58;3.30;;;2.28;;
19219;SDS011;9744;49.364;7.484;2023-06-14T13:06:26;7.32;;;4.25;;
19219;SDS011;9744;49.364;7.484;2023-06-14T13:08:54;5.50;;;1.50;;
19219;SDS011;9744;49.364;7.484;2023-06-14T13:11:23;3.13;;;2.83;;
19219;SDS011;9744;49.364;7.484;2023-06-14T13:13:53;6.03;;;2.90;;
19219;SDS011;9744;49.364;7.484;2023-06-14T13:16:21;2.25;;;1.30;;
19219;SDS011;9744;49.364;7.484;2023-06-14T13:18:49;2.85;;;1.80;;
19219;SDS011;9744;49.364;7.484;2023-06-14T13:21:17;3.15;;;1.98;;
19219;SDS011;9744;49.364;7.484;2023-06-14T13:23:44;6.80;;;3.50;;
19219;SDS011;9744;49.364;7.484;2023-06-14T13:26:11;5.60;;;2.28;;
19219;SDS011;9744;49.364;7.484;2023-06-14T13:28:38;2.25;;;1.23;;
19219;SDS011;9744;49.364;7.484;2023-06-14T13:31:06;3.42;;;1.60;;
19219;SDS011;9744;49.364;7.484;2023-06-14T13:33:33;2.55;;;1.30;;
19219;SDS011;9744;49.364;7.484;2023-06-14T13:36:02;3.10;;;1.35;;
19219;SDS011;9744;49.364;7.484;2023-06-14T13:38:29;3.95;;;1.45;;
19219;SDS011;9744;49.364;7.484;2023-06-14T13:40:56;1.67;;;1.38;;
19219;SDS011;9744;49.364;7.484;2023-06-14T13:43:40;2.40;;;1.52;;
19219;SDS011;9744;49.364;7.484;2023-06-14T13:46:07;1.88;;;1.20;;
19219;SDS011;9744;49.364;7.484;2023-06-14T13:48:41;3.75;;;1.35;;
19219;SDS011;9744;49.364;7.484;2023-06-14T13:51:10;1.20;;;1.10;;
19219;SDS011;9744;49.364;7.484;2023-06-14T13:53:37;1.65;;;1.35;;
19219;SDS011;9744;49.364;7.484;2023-06-14T13:56:05;2.55;;;2.10;;
19219;SDS011;9744;49.364;7.484;2023-06-14T13:58:32;4.03;;;1.55;;
19219;SDS011;9744;49.364;7.484;2023-06-14T14:01:00;2.10;;;0.80;;
19219;SDS011;9744;49.364;7.484;2023-06-14T14:03:28;5.72;;;1.10;;
19219;SDS011;9744;49.364;7.484;2023-06-14T14:05:56;4.03;;;1.70;;
19219;SDS011;9744;49.364;7.484;2023-06-14T14:08:25;3.35;;;1.38;;
19219;SDS011;9744;49.364;7.484;2023-06-14T14:10:52;4.25;;;1.25;;
19219;SDS011;9744;49.364;7.484;2023-06-14T14:13:21;11.88;;;1.20;;
19219;SDS011;9744;49.364;7.484;2023-06-14T14:15:48;6.88;;;1.48;;
19219;SDS011;9744;49.364;7.484;2023-06-14T14:18:18;1.75;;;1.20;;
19219;SDS011;9744;49.364;7.484;2023-06-14T14:20:47;1.60;;;1.27;;
19219;SDS011;9744;49.364;7.484;2023-06-14T14:23:14;3.95;;;1.10;;
19219;SDS011;9744;49.364;7.484;2023-06-14T14:25:43;1.48;;;0.93;;
19219;SDS011;9744;49.364;7.484;2023-06-14T14:28:10;2.10;;;1.05;;
19219;SDS011;9744;49.364;7.484;2023-06-14T14:30:39;1.38;;;1.05;;
19219;SDS011;9744;49.364;7.484;2023-06-14T14:33:06;6.97;;;1.67;;
19219;SDS011;9744;49.364;7.484;2023-06-14T14:35:34;5.18;;;2.65;;
19219;SDS011;9744;49.364;7.484;2023-06-14T14:38:01;29.02;;;5.22;;
19219;SDS011;9744;49.364;7.484;2023-06-14T14:40:30;11.05;;;5.28;;
19219;SDS011;9744;49.364;7.484;2023-06-14T14:42:58;7.18;;;5.18;;
19219;SDS011;9744;49.364;7.484;2023-06-14T14:45:26;8.95;;;4.47;;
19219;SDS011;9744;49.364;7.484;2023-06-14T14:47:54;8.77;;;5.95;;
19219;SDS011;9744;49.364;7.484;2023-06-14T14:50:21;36.47;;;8.48;;
19219;SDS011;9744;49.364;7.484;2023-06-14T14:52:48;22.95;;;4.57;;
19219;SDS011;9744;49.364;7.484;2023-06-14T14:55:16;2.08;;;1.70;;
19219;SDS011;9744;49.364;7.484;2023-06-14T14:57:43;2.90;;;1.10;;
19219;SDS011;9744;49.364;7.484;2023-06-14T15:00:14;2.08;;;1.17;;
19219;SDS011;9744;49.364;7.484;2023-06-14T15:02:41;1.40;;;1.00;;
19219;SDS011;9744;49.364;7.484;2023-06-14T15:05:09;4.03;;;1.83;;
19219;SDS011;9744;49.364;7.484;2023-06-14T15:07:36;1.35;;;1.25;;
19219;SDS011;9744;49.364;7.484;2023-06-14T15:10:05;1.50;;;1.40;;
19219;SDS011;9744;49.364;7.484;2023-06-14T15:12:33;34.17;;;4.25;;
19219;SDS011;9744;49.364;7.484;2023-06-14T15:15:01;6.15;;;1.42;;
19219;SDS011;9744;49.364;7.484;2023-06-14T15:17:31;7.60;;;1.70;;
19219;SDS011;9744;49.364;7.484;2023-06-14T15:19:58;3.10;;;1.75;;
19219;SDS011;9744;49.364;7.484;2023-06-14T15:22:25;23.13;;;2.72;;
19219;SDS011;9744;49.364;7.484;2023-06-14T15:24:52;21.30;;;2.90;;
19219;SDS011;9744;49.364;7.484;2023-06-14T15:27:20;4.20;;;1.27;;
19219;SDS011;9744;49.364;7.484;2023-06-14T15:29:47;6.95;;;1.50;;
19219;SDS011;9744;49.364;7.484;2023-06-14T15:32:14;4.78;;;1.15;;
19219;SDS011;9744;49.364;7.484;2023-06-14T15:34:43;1.30;;;1.05;;
19219;SDS011;9744;49.364;7.484;2023-06-14T15:37:10;3.38;;;1.00;;
19219;SDS011;9744;49.364;7.484;2023-06-14T15:39:37;1.45;;;1.10;;